createdAt,value
2018-06-03T00:02:22.051Z,94.20
2018-06-03T00:07:18.804Z,94.30
2018-06-03T00:09:47.359Z,94.20
2018-06-03T00:12:15.870Z,94.50
2018-06-03T00:17:12.638Z,94.20
2018-06-03T00:24:38.789Z,94.40
2018-06-03T00:29:35.548Z,94.50
2018-06-03T00:34:32.308Z,94.50
2018-06-03T00:37:02.149Z,94.60
2018-06-03T00:39:31.775Z,94.70
2018-06-03T00:42:01.326Z,94.70
2018-06-03T00:44:31.367Z,94.60
2018-06-03T00:47:01.073Z,94.60
2018-06-03T00:49:30.239Z,94.60
2018-06-03T00:51:59.214Z,94.70
2018-06-03T00:54:27.804Z,94.60
2018-06-03T00:57:15.257Z,94.60
2018-06-03T01:02:12.068Z,94.70
2018-06-03T01:04:40.582Z,94.70
2018-06-03T01:07:09.141Z,94.70
2018-06-03T01:09:37.637Z,94.80
2018-06-03T01:12:06.196Z,94.80
2018-06-03T01:14:34.726Z,94.80
2018-06-03T01:17:03.287Z,94.80
2018-06-03T01:19:31.795Z,95.00
2018-06-03T01:22:01.453Z,95.10
2018-06-03T01:24:36.472Z,95.10
2018-06-03T01:27:05.027Z,95.20
2018-06-03T01:29:33.583Z,95.40
2018-06-03T01:32:02.146Z,95.40
2018-06-03T01:34:31.857Z,95.80
2018-06-03T01:37:01.386Z,95.40
2018-06-03T01:39:31.269Z,95.40
2018-06-03T01:42:00.469Z,95.80
2018-06-03T01:44:30.007Z,95.70
2018-06-03T01:46:59.201Z,95.80
2018-06-03T01:49:27.684Z,95.70
2018-06-03T01:51:56.261Z,95.60
2018-06-03T01:54:24.804Z,95.70
2018-06-03T01:56:53.366Z,95.70
2018-06-03T01:59:21.877Z,95.70
2018-06-03T02:01:50.476Z,95.80
2018-06-03T02:04:18.986Z,95.90
2018-06-03T02:09:15.756Z,95.90
2018-06-03T02:11:44.299Z,95.90
2018-06-03T02:14:12.865Z,95.90
2018-06-03T02:16:41.406Z,96.00
2018-06-03T02:19:09.921Z,96.00
2018-06-03T02:21:38.451Z,95.90
2018-06-03T02:24:06.996Z,95.90
2018-06-03T02:26:35.548Z,95.90
2018-06-03T02:29:04.074Z,95.80
2018-06-03T02:31:32.577Z,95.90
2018-06-03T02:36:31.603Z,96.00
2018-06-03T02:39:00.216Z,96.00
2018-06-03T02:41:29.231Z,96.00
2018-06-03T02:43:57.834Z,96.00
2018-06-03T02:46:26.316Z,96.20
2018-06-03T02:48:54.855Z,96.10
2018-06-03T02:51:23.406Z,96.10
2018-06-03T02:56:20.204Z,96.20
2018-06-03T02:58:48.721Z,96.20
2018-06-03T03:03:45.516Z,96.20
2018-06-03T03:06:14.071Z,96.30
2018-06-03T03:08:42.560Z,96.30
2018-06-03T03:13:39.311Z,96.40
2018-06-03T03:18:36.068Z,96.40
2018-06-03T03:23:32.830Z,96.50
2018-06-03T03:26:02.332Z,96.60
2018-06-03T03:31:01.212Z,96.70
2018-06-03T03:33:30.195Z,96.60
2018-06-03T03:35:59.189Z,96.70
2018-06-03T03:38:27.736Z,96.80
2018-06-03T03:40:56.256Z,96.80
2018-06-03T03:43:24.843Z,96.90
2018-06-03T03:45:53.403Z,97.10
2018-06-03T03:48:21.893Z,97.20
2018-06-03T03:50:50.470Z,97.40
2018-06-03T03:53:19.268Z,97.50
2018-06-03T03:55:47.752Z,97.70
2018-06-03T03:58:16.443Z,97.90
2018-06-03T04:00:44.934Z,98.00
2018-06-03T04:03:13.483Z,98.00
2018-06-03T04:05:41.981Z,98.00
2018-06-03T04:08:10.547Z,98.20
2018-06-03T04:10:39.118Z,98.20
2018-06-03T04:13:07.659Z,98.40
2018-06-03T04:15:36.156Z,98.50
2018-06-03T04:18:04.779Z,98.60
2018-06-03T04:20:33.321Z,98.70
2018-06-03T04:25:31.360Z,98.90
2018-06-03T04:28:00.547Z,99.00
2018-06-03T04:30:29.958Z,99.00
2018-06-03T04:32:59.269Z,99.00
2018-06-03T04:35:27.831Z,99.10
2018-06-03T04:37:56.368Z,99.20
2018-06-03T04:42:53.175Z,99.30
2018-06-03T04:45:21.712Z,99.30
2018-06-03T04:47:50.203Z,99.30
2018-06-03T04:50:18.733Z,99.30
2018-06-03T04:52:47.228Z,99.50
2018-06-03T04:55:15.780Z,99.70
2018-06-03T04:57:44.308Z,99.80
2018-06-03T05:02:41.094Z,99.80
2018-06-03T05:05:09.641Z,99.80
2018-06-03T05:07:38.136Z,99.90
2018-06-03T05:12:34.928Z,99.90
2018-06-03T05:15:03.477Z,99.90
2018-06-03T05:20:01.475Z,99.90
2018-06-03T05:22:31.119Z,99.90
2018-06-03T05:25:00.192Z,99.90
2018-06-03T05:27:28.871Z,99.80
2018-06-03T05:29:57.492Z,99.90
2018-06-03T05:32:26.831Z,99.90
2018-06-03T05:34:55.352Z,99.90
2018-06-03T05:37:23.854Z,99.90
2018-06-03T05:39:52.723Z,99.90
2018-06-03T05:42:21.219Z,99.90
2018-06-03T05:44:49.794Z,99.90
2018-06-03T05:47:18.314Z,99.90
2018-06-03T05:49:46.859Z,99.90
2018-06-03T05:52:15.350Z,99.90
2018-06-03T05:54:44.020Z,99.90
2018-06-03T05:57:12.540Z,99.90
2018-06-03T05:59:41.084Z,99.90
2018-06-03T06:02:09.591Z,99.90
2018-06-03T06:04:38.130Z,99.90
2018-06-03T06:07:06.653Z,99.90
2018-06-03T06:09:35.350Z,99.90
2018-06-03T06:12:03.902Z,99.90
2018-06-03T06:14:32.665Z,99.90
2018-06-03T06:17:01.968Z,99.90
2018-06-03T06:19:31.092Z,99.90
2018-06-03T06:22:00.209Z,99.90
2018-06-03T06:24:29.139Z,99.90
2018-06-03T06:29:26.097Z,99.90
2018-06-03T06:31:54.619Z,99.90
2018-06-03T06:34:23.197Z,99.90
2018-06-03T06:36:51.785Z,99.90
2018-06-03T06:39:20.378Z,99.90
2018-06-03T06:41:49.057Z,99.90
2018-06-03T06:44:17.638Z,99.90
2018-06-03T06:46:46.261Z,99.90
2018-06-03T06:49:14.857Z,99.90
2018-06-03T06:54:11.779Z,99.90
2018-06-03T06:56:40.439Z,99.90
2018-06-03T06:59:09.002Z,99.90
2018-06-03T07:01:37.546Z,99.90
2018-06-03T07:04:06.157Z,99.90
2018-06-03T07:11:32.058Z,99.90
2018-06-03T07:14:01.384Z,99.90
2018-06-03T07:16:30.604Z,99.90
2018-06-03T07:18:59.724Z,99.90
2018-06-03T07:21:28.293Z,99.90
2018-06-03T07:26:29.924Z,99.90
2018-06-03T07:28:59.226Z,99.90
2018-06-03T07:31:27.939Z,99.90
2018-06-03T07:33:56.898Z,99.90
2018-06-03T07:36:26.475Z,99.90
2018-06-03T07:39:00.874Z,99.90
2018-06-03T07:41:34.169Z,99.90
2018-06-03T07:44:18.573Z,99.90
2018-06-03T07:46:48.530Z,99.90
2018-06-03T07:49:17.232Z,99.90
2018-06-03T07:51:45.862Z,99.90
2018-06-03T07:54:14.494Z,99.90
2018-06-03T07:59:16.201Z,99.90
2018-06-03T08:04:19.328Z,99.90
2018-06-03T08:06:48.090Z,99.90
2018-06-03T08:09:16.902Z,99.90
2018-06-03T08:11:49.860Z,99.90
2018-06-03T08:14:19.014Z,99.90
2018-06-03T08:17:05.137Z,99.90
2018-06-03T08:19:37.429Z,99.90
2018-06-03T08:24:46.717Z,99.90
2018-06-03T08:27:28.187Z,99.90
2018-06-03T08:30:01.267Z,99.70
2018-06-03T08:32:30.807Z,99.80
2018-06-03T08:35:03.753Z,99.80
2018-06-03T08:37:32.896Z,99.50
2018-06-03T08:40:02.657Z,99.50
2018-06-03T08:42:32.125Z,99.40
2018-06-03T08:47:34.731Z,99.60
2018-06-03T08:50:11.318Z,99.90
2018-06-03T08:52:46.393Z,99.70
2018-06-03T08:57:52.369Z,99.90
2018-06-03T09:00:20.973Z,99.90
2018-06-03T09:05:18.183Z,99.90
2018-06-03T09:07:46.846Z,99.80
2018-06-03T09:10:19.991Z,99.90
2018-06-03T09:12:51.367Z,99.90
2018-06-03T09:15:31.329Z,99.70
2018-06-03T09:18:02.482Z,99.70
2018-06-03T09:20:32.107Z,98.90
2018-06-03T09:23:03.003Z,98.40
2018-06-03T09:25:32.710Z,98.90
2018-06-03T09:30:32.380Z,99.20
2018-06-03T09:33:13.484Z,98.30
2018-06-03T09:35:44.464Z,98.60
2018-06-03T09:38:13.741Z,98.50
2018-06-03T09:40:42.873Z,98.00
2018-06-03T09:43:14.738Z,97.90
2018-06-03T09:45:43.526Z,97.80
2018-06-03T09:48:12.565Z,97.90
2018-06-03T09:50:58.636Z,97.50
2018-06-03T09:53:28.425Z,97.30
2018-06-03T09:55:57.190Z,97.30
2018-06-03T09:58:25.837Z,97.30
2018-06-03T10:00:55.932Z,97.50
2018-06-03T10:03:25.222Z,97.10
2018-06-03T10:05:55.994Z,96.90
2018-06-03T10:08:49.394Z,96.80
2018-06-03T10:14:06.474Z,96.70
2018-06-03T10:16:46.138Z,96.80
2018-06-03T10:19:30.331Z,96.50
2018-06-03T10:22:02.090Z,96.10
2018-06-03T10:24:33.307Z,96.10
2018-06-03T10:27:02.402Z,95.90
2018-06-03T10:29:44.741Z,95.40
2018-06-03T10:32:13.483Z,94.30
2018-06-03T10:34:42.331Z,94.00
2018-06-03T10:37:11.244Z,93.50
2018-06-03T10:39:39.945Z,94.10
2018-06-03T10:42:08.681Z,94.30
2018-06-03T10:44:37.441Z,93.10
2018-06-03T10:47:06.177Z,91.30
2018-06-03T10:49:35.227Z,91.30
2018-06-03T10:52:04.049Z,91.00
2018-06-03T10:54:32.732Z,91.50
2018-06-03T10:57:02.071Z,91.30
2018-06-03T10:59:33.945Z,91.50
2018-06-03T11:02:02.666Z,91.20
2018-06-03T11:04:33.623Z,92.00
2018-06-03T11:09:34.457Z,91.00
2018-06-03T11:12:04.460Z,90.60
2018-06-03T11:14:35.731Z,91.20
2018-06-03T11:17:04.397Z,91.00
2018-06-03T11:19:33.070Z,88.80
2018-06-03T11:22:03.686Z,90.00
2018-06-03T11:27:02.366Z,89.50
2018-06-03T11:29:31.874Z,88.50
2018-06-03T11:32:01.062Z,87.80
2018-06-03T11:34:30.827Z,88.30
2018-06-03T11:37:01.279Z,88.70
2018-06-03T11:39:30.291Z,89.90
2018-06-03T11:51:08.411Z,88.30
2018-06-03T11:53:37.090Z,90.20
2018-06-03T11:58:45.355Z,87.90
2018-06-03T12:01:14.364Z,89.50
2018-06-03T12:03:43.913Z,86.50
2018-06-03T12:08:41.171Z,87.70
2018-06-03T12:11:10.047Z,87.00
2018-06-03T12:13:39.938Z,87.30
2018-06-03T12:18:38.397Z,84.80
2018-06-03T12:21:09.231Z,85.10
2018-06-03T12:23:39.291Z,85.40
2018-06-03T12:26:08.062Z,85.20
2018-06-03T12:28:49.009Z,87.30
2018-06-03T12:31:18.230Z,85.80
2018-06-03T12:33:46.884Z,83.10
2018-06-03T12:36:15.946Z,84.40
2018-06-03T12:38:44.895Z,83.30
2018-06-03T12:41:13.582Z,82.80
2018-06-03T12:43:42.330Z,82.50
2018-06-03T12:48:39.739Z,82.50
2018-06-03T12:51:08.354Z,81.20
2018-06-03T12:53:36.994Z,79.60
2018-06-03T12:56:05.692Z,79.10
2018-06-03T12:58:46.221Z,81.00
2018-06-03T13:01:15.149Z,79.50
2018-06-03T13:03:43.757Z,77.00
2018-06-03T13:06:12.430Z,78.80
2018-06-03T13:08:41.187Z,79.30
2018-06-03T13:11:11.670Z,78.80
2018-06-03T13:13:40.287Z,79.00
2018-06-03T13:18:37.191Z,73.20
2018-06-03T13:21:06.360Z,73.70
2018-06-03T13:23:35.965Z,77.60
2018-06-03T13:26:05.061Z,72.70
2018-06-03T13:28:36.723Z,72.60
2018-06-03T13:31:05.947Z,73.20
2018-06-03T13:33:34.564Z,70.20
2018-06-03T13:36:03.144Z,72.80
2018-06-03T13:38:31.828Z,71.30
2018-06-03T13:41:02.392Z,70.70
2018-06-03T13:43:32.361Z,70.90
2018-06-03T13:46:01.097Z,71.30
2018-06-03T13:48:29.722Z,72.30
2018-06-03T13:50:58.418Z,72.80
2018-06-03T13:53:27.164Z,72.90
2018-06-03T13:55:55.735Z,74.10
2018-06-03T13:58:24.418Z,72.90
2018-06-03T14:00:53.175Z,73.50
2018-06-03T14:03:21.897Z,72.00
2018-06-03T14:05:50.492Z,70.80
2018-06-03T14:08:19.193Z,75.20
2018-06-03T14:10:47.860Z,71.70
2018-06-03T14:13:16.500Z,71.50
2018-06-03T14:15:45.328Z,71.50
2018-06-03T14:18:14.141Z,71.20
2018-06-03T14:20:42.940Z,72.00
2018-06-03T14:23:11.678Z,70.30
2018-06-03T14:26:00.418Z,72.90
2018-06-03T14:28:29.789Z,72.20
2018-06-03T14:30:58.411Z,71.50
2018-06-03T14:33:27.035Z,71.40
2018-06-03T14:35:55.702Z,68.40
2018-06-03T14:38:24.265Z,68.50
2018-06-03T14:43:22.227Z,68.40
2018-06-03T14:45:51.138Z,68.10
2018-06-03T14:48:20.326Z,68.10
2018-06-03T14:50:49.079Z,68.70
2018-06-03T14:53:17.599Z,69.30
2018-06-03T14:58:16.112Z,65.90
2018-06-03T15:03:13.197Z,68.30
2018-06-03T15:05:41.877Z,65.60
2018-06-03T15:08:10.984Z,66.30
2018-06-03T15:10:39.579Z,66.80
2018-06-03T15:15:36.814Z,67.30
2018-06-03T15:18:06.678Z,66.70
2018-06-03T15:20:35.388Z,67.90
2018-06-03T15:23:04.224Z,69.00
2018-06-03T15:25:32.905Z,70.00
2018-06-03T15:28:01.896Z,70.50
2018-06-03T15:30:31.120Z,71.30
2018-06-03T15:32:59.956Z,71.50
2018-06-03T15:37:56.999Z,70.80
2018-06-03T15:40:25.781Z,70.30
2018-06-03T15:47:53.530Z,72.20
2018-06-03T15:50:22.175Z,74.00
2018-06-03T15:52:55.050Z,71.60
2018-06-03T15:55:24.761Z,71.70
2018-06-03T15:57:53.415Z,72.50
2018-06-03T16:00:22.367Z,72.00
2018-06-03T16:05:19.687Z,73.40
2018-06-03T16:07:49.294Z,74.40
2018-06-03T16:10:18.021Z,74.50
2018-06-03T16:12:46.638Z,76.10
2018-06-03T16:17:43.521Z,74.90
2018-06-03T16:20:12.244Z,74.90
2018-06-03T16:22:40.828Z,73.60
2018-06-03T16:25:09.548Z,74.90
2018-06-03T16:30:06.521Z,76.70
2018-06-03T16:32:35.299Z,77.20
2018-06-03T16:37:32.257Z,77.30
2018-06-03T16:40:01.472Z,78.00
2018-06-03T16:42:30.803Z,79.00
2018-06-03T16:44:59.463Z,77.20
2018-06-03T16:47:28.125Z,77.40
2018-06-03T16:49:56.904Z,77.80
2018-06-03T16:54:53.918Z,77.20
2018-06-03T16:57:22.537Z,77.20
2018-06-03T17:02:19.496Z,76.40
2018-06-03T17:04:48.250Z,76.30
2018-06-03T17:07:17.776Z,76.90
2018-06-03T17:09:46.499Z,76.80
2018-06-03T17:12:15.277Z,76.90
2018-06-03T17:17:12.315Z,77.70
2018-06-03T17:19:40.985Z,77.60
2018-06-03T17:22:09.578Z,78.30
2018-06-03T17:24:38.271Z,78.90
2018-06-03T17:27:06.890Z,78.90
2018-06-03T17:29:35.667Z,78.60
2018-06-03T17:32:04.337Z,79.30
2018-06-03T17:34:32.973Z,80.20
2018-06-03T17:37:01.615Z,80.70
2018-06-03T17:41:59.122Z,80.60
2018-06-03T17:44:27.772Z,80.50
2018-06-03T17:46:56.468Z,80.70
2018-06-03T17:49:25.250Z,81.30
2018-06-03T17:54:22.716Z,82.10
2018-06-03T17:59:20.035Z,83.10
2018-06-03T18:01:48.786Z,83.30
2018-06-03T18:06:45.811Z,85.00
2018-06-03T18:09:14.422Z,84.80
2018-06-03T18:14:11.538Z,86.60
2018-06-03T18:16:41.865Z,86.50
2018-06-03T18:19:11.103Z,87.10
2018-06-03T18:24:08.201Z,88.90
2018-06-03T18:26:38.104Z,89.00
2018-06-03T18:29:07.188Z,88.80
2018-06-03T18:31:35.935Z,90.00
2018-06-03T18:34:04.605Z,90.40
2018-06-03T18:36:33.213Z,90.60
2018-06-03T18:39:02.180Z,91.10
2018-06-03T18:41:30.837Z,91.30
2018-06-03T18:43:59.894Z,91.60
2018-06-03T18:46:29.001Z,91.90
2018-06-03T18:51:26.144Z,92.50
2018-06-03T18:53:54.991Z,92.80
2018-06-03T18:56:23.873Z,93.00
2018-06-03T18:58:52.563Z,93.30
2018-06-03T19:01:21.382Z,93.60
2018-06-03T19:03:50.112Z,93.70
2018-06-03T19:08:47.259Z,94.10
2018-06-03T19:11:15.943Z,94.10
2018-06-03T19:13:44.671Z,94.20
2018-06-03T19:16:13.404Z,94.40
2018-06-03T19:18:42.199Z,94.60
2018-06-03T19:21:10.935Z,94.80
2018-06-03T19:23:39.752Z,95.10
2018-06-03T19:26:08.572Z,95.20
2018-06-03T19:28:37.663Z,95.40
2018-06-03T19:33:35.637Z,95.60
2018-06-03T19:36:05.353Z,95.80
2018-06-03T19:38:57.111Z,95.70
2018-06-03T19:41:27.241Z,95.80
2018-06-03T19:43:56.275Z,96.00
2018-06-03T19:46:27.888Z,96.10
2018-06-03T19:48:57.510Z,96.30
2018-06-03T19:51:26.705Z,96.40
2018-06-03T19:53:56.201Z,96.50
2018-06-03T19:56:25.459Z,96.70
2018-06-03T19:58:54.660Z,96.80
2018-06-03T20:03:54.353Z,97.10
2018-06-03T20:06:27.176Z,97.20
2018-06-03T20:08:56.584Z,97.40
2018-06-03T20:13:54.832Z,97.50
2018-06-03T20:16:23.987Z,97.60
2018-06-03T20:18:53.797Z,97.70
2018-06-03T20:21:23.614Z,97.80
2018-06-03T20:23:52.920Z,97.90
2018-06-03T20:26:22.748Z,98.00
2018-06-03T20:28:56.649Z,98.00
2018-06-03T20:31:26.138Z,98.10
2018-06-03T20:33:55.739Z,98.40
2018-06-03T20:36:25.158Z,98.40
2018-06-03T20:38:54.024Z,98.40
2018-06-03T20:46:20.886Z,98.60
2018-06-03T20:48:50.024Z,98.70
2018-06-03T20:51:19.430Z,98.80
2018-06-03T20:53:48.528Z,99.10
2018-06-03T20:56:17.775Z,99.00
2018-06-03T20:58:47.220Z,99.00
2018-06-03T21:01:16.412Z,99.00
2018-06-03T21:03:45.564Z,99.00
2018-06-03T21:06:14.502Z,99.00
2018-06-03T21:08:43.622Z,99.20
2018-06-03T21:11:13.046Z,99.10
2018-06-03T21:16:11.588Z,99.30
2018-06-03T21:18:40.998Z,99.50
2018-06-03T21:21:10.095Z,99.50
2018-06-03T21:23:39.306Z,99.40
2018-06-03T21:26:08.231Z,99.50
2018-06-03T21:28:37.548Z,99.60
2018-06-03T21:31:07.010Z,99.60
2018-06-03T21:33:36.237Z,99.70
2018-06-03T21:36:05.966Z,99.50
2018-06-03T21:38:34.484Z,99.50
2018-06-03T21:41:03.052Z,99.50
2018-06-03T21:45:59.840Z,99.60
2018-06-03T21:48:28.416Z,99.60
2018-06-03T21:50:56.974Z,99.50
2018-06-03T21:55:53.764Z,99.60
2018-06-03T21:58:22.329Z,99.70
2018-06-03T22:00:50.849Z,99.80
2018-06-03T22:03:19.415Z,99.70
2018-06-03T22:05:51.394Z,99.70
2018-06-03T22:08:21.485Z,99.70
2018-06-03T22:10:49.967Z,99.80
2018-06-03T22:13:18.531Z,99.80
2018-06-03T22:15:47.045Z,99.70
2018-06-03T22:18:15.528Z,99.80
2018-06-03T22:20:44.099Z,99.80
2018-06-03T22:23:12.647Z,99.90
2018-06-03T22:28:09.414Z,99.90
2018-06-03T22:30:37.971Z,99.60
2018-06-03T22:33:06.488Z,99.90
2018-06-03T22:35:35.031Z,99.80
2018-06-03T22:38:03.527Z,99.80
2018-06-03T22:40:32.076Z,99.90
2018-06-03T22:43:01.119Z,99.90
2018-06-03T22:45:29.633Z,99.90
2018-06-03T22:47:58.276Z,99.90
2018-06-03T22:52:55.049Z,99.90
2018-06-03T22:55:23.549Z,99.90
2018-06-03T22:57:53.120Z,99.90
2018-06-03T23:03:04.434Z,99.90
2018-06-03T23:05:32.967Z,99.90
2018-06-03T23:08:01.591Z,99.90
2018-06-03T23:10:30.096Z,99.90
2018-06-03T23:12:58.699Z,99.90
2018-06-03T23:15:27.228Z,99.90
2018-06-03T23:17:55.760Z,99.90
2018-06-03T23:20:24.270Z,99.90
2018-06-03T23:22:52.828Z,99.90
2018-06-03T23:25:21.347Z,99.90
2018-06-03T23:27:49.891Z,99.90
2018-06-03T23:30:18.392Z,99.90
2018-06-03T23:32:46.955Z,99.90
2018-06-03T23:35:15.459Z,99.90
2018-06-03T23:37:43.976Z,99.90
2018-06-03T23:40:12.536Z,99.90
2018-06-03T23:42:41.042Z,99.90
2018-06-03T23:45:09.604Z,99.90
2018-06-03T23:47:38.095Z,99.90
2018-06-03T23:55:03.127Z,99.90
2018-06-03T23:59:59.915Z,99.90
